EmpreSS Horn Blower — WAZ9629 — position and weather

sailwx.info

Track history (hours):
 
Tides and Currents Weather Stations Pressure Air Temp Water Temp Dewpoint Dewpoint Depression Visibility Wind Speed Wind Dir Waves Ship Positions

EmpreSS Horn Blower

Owner: HORNBLOWER DINING YACHTS, SAN FRANCISCO, CA. More information available from US FCC via Universal Licensing System and Coast Guard Vessel Documentation Center.

Last reported at 2018-Jul-21 21:03 UTC. Time now 2018-Jul-22 08:33 UTC.
Position N 37°52' W 122°19'.

Length 26 m; draft 2 m.

Type: Passenger vessel. MMSI: 366988170.

Date/timePositionNaut miles runAvg speedWind from/ knotsBaromVisibWave heightAir tempDewpointWater temp
2018-Jul-21 21:03N 37°52' W 122°19'0 0.0
2018-Jul-21 21:00N 37°52' W 122°19'2 3.6
2018-Jul-21 20:30N 37°51' W 122°21'4 7.1
2018-Jul-21 20:00N 37°50' W 122°25'3 6.9
2018-Jul-21 19:30N 37°51' W 122°21'2 3.7
2018-Jul-21 19:00N 37°52' W 122°19'0 0.0
2018-Jul-21 18:30N 37°52' W 122°19'0 0.0
2018-Jul-21 18:00N 37°52' W 122°19'  
2018-Jul-19 05:50N 37°52' W 122°19'1 4.4
2018-Jul-19 05:31N 37°51' W 122°20'4 7.1
2018-Jul-19 05:00N 37°49' W 122°23'1 1.6
2018-Jul-19 04:31N 37°48' W 122°24'1 2.5
2018-Jul-19 04:00N 37°49' W 122°25'2 4.6
2018-Jul-19 03:30N 37°49' W 122°27'3 5.7
2018-Jul-19 03:01N 37°52' W 122°27'2 4.1
2018-Jul-19 02:30N 37°51' W 122°25'3 5.1
2018-Jul-19 02:00N 37°49' W 122°24'1 1.4
2018-Jul-19 01:31N 37°48' W 122°24'1 2.1
2018-Jul-19 01:01N 37°49' W 122°23'3 6.2
2018-Jul-19 00:30N 37°51' W 122°21'2 3.3
2018-Jul-18 23:59N 37°52' W 122°19'  
2018-Jul-14 01:32N 37°52' W 122°19'0 0.0
2018-Jul-14 01:30N 37°52' W 122°19'2 4.3
2018-Jul-14 01:00N 37°51' W 122°21'4 7.4
2018-Jul-14 00:30N 37°48' W 122°24'0 0.6
2018-Jul-14 00:00N 37°48' W 122°24'2 4.0
2018-Jul-13 23:30N 37°49' W 122°21'3 6.2
2018-Jul-13 23:00N 37°51' W 122°24'2 4.2
2018-Jul-13 22:30N 37°52' W 122°26'0 0.0
2018-Jul-13 22:00N 37°52' W 122°26'0 0.5
2018-Jul-13 21:30N 37°52' W 122°26'3 5.7
2018-Jul-13 21:00N 37°50' W 122°24'2 4.3
2018-Jul-13 20:30N 37°48' W 122°24'0 0.0
2018-Jul-13 20:00N 37°48' W 122°24'0 0.0
2018-Jul-13 19:30N 37°48' W 122°24'1 2.2
2018-Jul-13 19:00N 37°49' W 122°23'3 5.3
2018-Jul-13 18:30N 37°51' W 122°25'1 2.9
2018-Jul-13 18:00N 37°52' W 122°26'0 0.1
2018-Jul-13 17:30N 37°52' W 122°26'2 4.1
2018-Jul-13 17:00N 37°51' W 122°24'3 5.9
2018-Jul-13 16:30N 37°48' W 122°24'0 0.3
2018-Jul-13 16:00N 37°48' W 122°24'0 0.7
2018-Jul-13 15:30N 37°48' W 122°23'4 7.4
2018-Jul-13 15:00N 37°51' W 122°21'2 3.6
2018-Jul-13 14:30N 37°52' W 122°19'  
Track history (hours):
 
Tides and Currents Weather Stations Pressure Air Temp Water Temp Dewpoint Dewpoint Depression Visibility Wind Speed Wind Dir Waves Ship Positions

EmpreSS Horn Blower

Owner: HORNBLOWER DINING YACHTS, SAN FRANCISCO, CA. More information available from US FCC via Universal Licensing System and Coast Guard Vessel Documentation Center.

Last reported at 2018-Jul-21 21:03 UTC. Time now 2018-Jul-22 08:33 UTC.
Position N 37°52' W 122°19'.

Length 26 m; draft 2 m.

Type: Passenger vessel. MMSI: 366988170.

Date/timePositionNaut miles runAvg speedWind from/ knotsBaromVisibWave heightAir tempDewpointWater temp
2018-Jul-21 21:03N 37°52' W 122°19'0 0.0
2018-Jul-21 21:00N 37°52' W 122°19'2 3.6
2018-Jul-21 20:30N 37°51' W 122°21'4 7.1
2018-Jul-21 20:00N 37°50' W 122°25'3 6.9
2018-Jul-21 19:30N 37°51' W 122°21'2 3.7
2018-Jul-21 19:00N 37°52' W 122°19'0 0.0
2018-Jul-21 18:30N 37°52' W 122°19'0 0.0
2018-Jul-21 18:00N 37°52' W 122°19'  
2018-Jul-19 05:50N 37°52' W 122°19'1 4.4
2018-Jul-19 05:31N 37°51' W 122°20'4 7.1
2018-Jul-19 05:00N 37°49' W 122°23'1 1.6
2018-Jul-19 04:31N 37°48' W 122°24'1 2.5
2018-Jul-19 04:00N 37°49' W 122°25'2 4.6
2018-Jul-19 03:30N 37°49' W 122°27'3 5.7
2018-Jul-19 03:01N 37°52' W 122°27'2 4.1
2018-Jul-19 02:30N 37°51' W 122°25'3 5.1
2018-Jul-19 02:00N 37°49' W 122°24'1 1.4
2018-Jul-19 01:31N 37°48' W 122°24'1 2.1
2018-Jul-19 01:01N 37°49' W 122°23'3 6.2
2018-Jul-19 00:30N 37°51' W 122°21'2 3.3
2018-Jul-18 23:59N 37°52' W 122°19'  
2018-Jul-14 01:32N 37°52' W 122°19'0 0.0
2018-Jul-14 01:30N 37°52' W 122°19'2 4.3
2018-Jul-14 01:00N 37°51' W 122°21'4 7.4
2018-Jul-14 00:30N 37°48' W 122°24'0 0.6
2018-Jul-14 00:00N 37°48' W 122°24'2 4.0
2018-Jul-13 23:30N 37°49' W 122°21'3 6.2
2018-Jul-13 23:00N 37°51' W 122°24'2 4.2
2018-Jul-13 22:30N 37°52' W 122°26'0 0.0
2018-Jul-13 22:00N 37°52' W 122°26'0 0.5
2018-Jul-13 21:30N 37°52' W 122°26'3 5.7
2018-Jul-13 21:00N 37°50' W 122°24'2 4.3
2018-Jul-13 20:30N 37°48' W 122°24'0 0.0
2018-Jul-13 20:00N 37°48' W 122°24'0 0.0
2018-Jul-13 19:30N 37°48' W 122°24'1 2.2
2018-Jul-13 19:00N 37°49' W 122°23'3 5.3
2018-Jul-13 18:30N 37°51' W 122°25'1 2.9
2018-Jul-13 18:00N 37°52' W 122°26'0 0.1
2018-Jul-13 17:30N 37°52' W 122°26'2 4.1
2018-Jul-13 17:00N 37°51' W 122°24'3 5.9
2018-Jul-13 16:30N 37°48' W 122°24'0 0.3
2018-Jul-13 16:00N 37°48' W 122°24'0 0.7
2018-Jul-13 15:30N 37°48' W 122°23'4 7.4
2018-Jul-13 15:00N 37°51' W 122°21'2 3.6
2018-Jul-13 14:30N 37°52' W 122°19'  

Dump ship's entire track history